createdAt,value
2023-01-18T00:01:57.354Z,19.40
2023-01-18T00:16:57.062Z,18.50
2023-01-18T00:31:56.984Z,17.40
2023-01-18T00:46:56.760Z,16.60
2023-01-18T01:01:56.823Z,14.90
2023-01-18T01:16:56.486Z,15.20
2023-01-18T01:31:56.304Z,14.60
2023-01-18T01:46:56.186Z,13.40
2023-01-18T02:01:56.190Z,13.50
2023-01-18T02:16:55.882Z,13.00
2023-01-18T02:31:55.721Z,12.50
2023-01-18T02:46:55.581Z,12.60
2023-01-18T03:01:55.441Z,12.60
2023-01-18T03:16:55.249Z,12.20
2023-01-18T03:31:55.091Z,12.70
2023-01-18T03:46:54.943Z,12.30
2023-01-18T04:01:54.834Z,12.30
2023-01-18T04:16:54.690Z,11.30
2023-01-18T04:31:54.488Z,10.50
2023-01-18T04:46:54.372Z,11.30
2023-01-18T05:01:54.193Z,10.40
2023-01-18T05:16:54.084Z,10.30
2023-01-18T05:31:53.899Z,9.70
2023-01-18T05:46:54.072Z,9.00
2023-01-18T06:01:53.670Z,7.30
2023-01-18T06:16:53.488Z,7.40
2023-01-18T06:31:53.357Z,7.00
2023-01-18T06:46:53.119Z,6.90
2023-01-18T07:01:53.115Z,7.50
2023-01-18T07:16:52.834Z,7.20
2023-01-18T07:31:52.690Z,6.20
2023-01-18T07:46:52.502Z,6.90
2023-01-18T08:01:52.449Z,6.50
2023-01-18T08:16:52.193Z,5.40
2023-01-18T08:31:52.030Z,3.80
2023-01-18T08:46:51.880Z,3.80
2023-01-18T09:01:51.755Z,3.90
2023-01-18T09:16:51.574Z,4.80
2023-01-18T09:31:51.415Z,3.70
2023-01-18T09:46:54.226Z,3.90
2023-01-18T10:01:52.831Z,3.60
2023-01-18T10:16:51.192Z,3.80
2023-01-18T10:31:50.897Z,4.10
2023-01-18T10:46:50.739Z,4.80
2023-01-18T11:01:50.667Z,5.00
2023-01-18T11:16:50.365Z,6.00
2023-01-18T11:31:50.314Z,5.70
2023-01-18T11:46:50.092Z,5.50
2023-01-18T12:01:50.004Z,6.00
2023-01-18T12:16:49.795Z,5.80
2023-01-18T12:31:49.600Z,5.70
2023-01-18T12:46:49.441Z,6.20
2023-01-18T13:01:49.328Z,5.90
2023-01-18T13:16:49.149Z,5.20
2023-01-18T13:31:48.990Z,5.90
2023-01-18T13:46:48.849Z,5.30
2023-01-18T14:01:48.850Z,5.30
2023-01-18T14:16:48.552Z,5.60
2023-01-18T14:31:48.394Z,5.40
2023-01-18T14:46:49.931Z,5.90
2023-01-18T15:01:48.327Z,6.10
2023-01-18T15:16:47.952Z,7.30
2023-01-18T15:31:47.874Z,7.50
2023-01-18T15:46:47.652Z,7.20
2023-01-18T16:01:47.697Z,7.80
2023-01-18T16:16:47.529Z,9.60
2023-01-18T16:31:48.109Z,9.10
2023-01-18T16:46:47.040Z,9.90
2023-01-18T17:01:47.245Z,9.30
2023-01-18T17:16:46.795Z,9.50
2023-01-18T17:31:52.393Z,10.40
2023-01-18T17:46:46.501Z,9.80
2023-01-18T18:01:46.379Z,8.70
2023-01-18T18:16:46.122Z,12.30
2023-01-18T18:31:45.967Z,10.50
2023-01-18T18:46:45.849Z,11.30
2023-01-18T19:01:45.800Z,10.20
2023-01-18T19:16:45.580Z,12.50
2023-01-18T19:31:45.403Z,13.00
2023-01-18T19:46:45.494Z,15.70
2023-01-18T20:01:45.351Z,18.70
2023-01-18T20:16:46.232Z,18.40
2023-01-18T20:31:49.847Z,21.00
2023-01-18T20:46:44.869Z,22.50
2023-01-18T21:01:44.607Z,24.70
2023-01-18T21:16:44.306Z,22.20
2023-01-18T21:31:44.107Z,21.10
2023-01-18T21:46:43.952Z,18.50
2023-01-18T22:01:43.948Z,16.90
2023-01-18T22:16:43.712Z,16.60
2023-01-18T22:31:43.491Z,17.10
2023-01-18T22:46:43.328Z,16.50
2023-01-18T23:01:43.180Z,18.10
2023-01-18T23:16:43.025Z,18.20
2023-01-18T23:31:42.873Z,18.70
2023-01-18T23:46:42.835Z,17.60
